Time;durP1;ratioP1;P1;durP2;ratioP2;P2;SDS_P1;SDS_P2;PMS_P1;PMS_P2;Temp;Humidity;BMP_temperature;BMP_pressure;BME280_temperature;BME280_humidity;BME280_pressure;Samples;Min_cycle;Max_cycle;Signal;HPM_P1;HPM_P2
2023/08/14 00:01:49;;;;;;;6.60;2.05;;;;;;;21.35;55.11;99841.69;4975129;28;20122;-75
2023/08/14 00:04:15;;;;;;;3.42;1.60;;;;;;;21.34;54.69;99844.53;4975009;28;20129;-74
2023/08/14 00:06:42;;;;;;;4.18;1.77;;;;;;;21.32;54.73;99854.56;4975437;28;20054;-79
2023/08/14 00:09:08;;;;;;;6.15;2.17;;;;;;;21.31;55.26;99858.25;4958093;28;20471;-77
2023/08/14 00:11:35;;;;;;;7.13;2.70;;;;;;;21.29;55.23;99852.19;4957758;28;20054;-77
2023/08/14 00:14:01;;;;;;;4.95;2.20;;;;;;;21.26;55.29;99852.53;4975207;28;20081;-76
2023/08/14 00:16:28;;;;;;;8.48;2.45;;;;;;;21.24;55.59;99854.50;4975114;28;20050;-78
2023/08/14 00:18:54;;;;;;;5.60;2.10;;;;;;;21.22;55.43;99858.19;4974906;28;20073;-75
2023/08/14 00:21:23;;;;;;;7.30;2.38;;;;;;;21.21;55.73;99853.84;4974804;28;20567;-79
2023/08/14 00:23:50;;;;;;;4.22;1.70;;;;;;;21.20;55.44;99857.47;4974996;28;20472;-75
2023/08/14 00:26:17;;;;;;;4.15;1.70;;;;;;;21.19;55.48;99857.63;4975000;28;20653;-75
2023/08/14 00:28:43;;;;;;;5.78;2.25;;;;;;;21.18;55.64;99855.97;4974717;28;20055;-79
2023/08/14 00:31:10;;;;;;;5.07;2.05;;;;;;;21.16;55.75;99858.78;4974647;28;20042;-76
2023/08/14 00:33:36;;;;;;;6.43;1.70;;;;;;;21.14;55.89;99851.91;4974676;28;20109;-75
2023/08/14 00:36:05;;;;;;;6.32;2.20;;;;;;;21.11;55.79;99852.25;4974715;28;20047;-75
2023/08/14 00:38:32;;;;;;;5.35;1.95;;;;;;;21.09;55.96;99855.06;4974726;28;20062;-74
2023/08/14 00:40:58;;;;;;;3.75;1.85;;;;;;;21.07;55.95;99849.00;4974853;28;20046;-79
2023/08/14 00:43:25;;;;;;;8.45;2.13;;;;;;;21.05;56.52;99845.66;4957106;28;20061;-78
2023/08/14 00:45:55;;;;;;;4.70;1.80;;;;;;;21.01;56.70;99847.78;4974716;28;20061;-76
2023/08/14 00:48:23;;;;;;;5.43;2.40;;;;;;;21.00;56.29;99845.28;4974605;28;20058;-75
2023/08/14 00:50:51;;;;;;;5.68;1.98;;;;;;;20.99;56.16;99855.13;4974668;28;20047;-75
2023/08/14 00:53:18;;;;;;;4.88;2.03;;;;;;;20.96;56.62;99850.94;4974474;28;20054;-75
2023/08/14 00:55:46;;;;;;;3.88;2.00;;;;;;;20.95;56.63;99857.28;4957439;28;20046;-75
2023/08/14 00:58:13;;;;;;;7.18;2.33;;;;;;;20.94;56.56;99852.91;4974024;28;20055;-75
2023/08/14 01:00:40;;;;;;;8.05;2.03;;;;;;;20.94;56.80;99847.56;4974353;28;20051;-75
2023/08/14 01:03:07;;;;;;;2.72;1.80;;;;;;;20.94;56.64;99852.09;4956408;28;20057;-75
2023/08/14 01:05:34;;;;;;;4.35;1.80;;;;;;;20.92;55.95;99849.56;4954694;29;20055;-77
2023/08/14 01:08:00;;;;;;;5.57;2.78;;;;;;;20.92;56.46;99841.53;4954844;29;20077;-76
2023/08/14 01:10:45;;;;;;;6.32;2.03;;;;;;;20.87;56.95;99840.28;4954981;29;20066;-76
2023/08/14 01:13:33;;;;;;;4.72;1.80;;;;;;;20.84;56.98;99838.75;4963501;28;20050;-76
2023/08/14 01:16:06;;;;;;;5.60;1.73;;;;;;;20.84;56.86;99830.72;4974170;28;20109;-75
2023/08/14 01:18:35;;;;;;;7.25;2.15;;;;;;;20.83;56.15;99832.53;4973800;28;20601;-78
2023/08/14 01:21:17;;;;;;;7.25;2.40;;;;;;;20.79;56.62;99841.88;4974037;28;20051;-76
2023/08/14 01:24:11;;;;;;;5.00;2.25;;;;;;;20.72;57.01;99831.94;4973906;28;20129;-77
2023/08/14 01:26:38;;;;;;;4.82;2.03;;;;;;;20.75;56.50;99839.66;4974015;28;20058;-79
2023/08/14 01:29:05;;;;;;;5.57;2.13;;;;;;;20.74;56.55;99840.66;4956428;28;20051;-74
2023/08/14 01:31:31;;;;;;;7.00;2.33;;;;;;;20.73;56.78;99839.81;4973757;28;20133;-78
2023/08/14 01:33:58;;;;;;;4.80;2.13;;;;;;;20.72;56.67;99839.97;4973419;28;20060;-76
2023/08/14 01:36:27;;;;;;;5.20;2.38;;;;;;;20.72;56.91;99843.50;4973588;28;20054;-76
2023/08/14 01:39:06;;;;;;;4.63;1.48;;;;;;;20.69;57.45;99847.31;4973670;28;20414;-79
2023/08/14 01:41:53;;;;;;;4.60;2.13;;;;;;;20.72;57.66;99845.31;4973637;28;20491;-77
2023/08/14 01:44:24;;;;;;;6.07;2.45;;;;;;;20.73;57.45;99833.59;4998946;23;20407;-80
2023/08/14 01:46:53;;;;;;;4.22;2.00;;;;;;;20.75;57.15;99842.34;4974247;28;20110;-80
2023/08/14 01:49:21;;;;;;;6.95;2.20;;;;;;;20.74;57.27;99832.63;4956892;28;20105;-80
2023/08/14 01:51:49;;;;;;;4.70;2.22;;;;;;;;;;4956945;28;20483;-80
2023/08/14 01:54:15;;;;;;;6.20;2.30;;;;;;;20.75;56.99;99826.28;4956594;28;20069;-80
2023/08/14 01:56:42;;;;;;;3.65;1.80;;;;;;;20.72;57.05;99819.41;4973276;28;20138;-80
2023/08/14 01:59:08;;;;;;;6.93;2.47;;;;;;;20.70;57.21;99816.88;4973467;28;20565;-80
2023/08/14 02:01:35;;;;;;;6.63;2.15;;;;;;;20.70;57.79;99821.38;4973972;28;20057;-81
2023/08/14 02:04:02;;;;;;;7.18;2.35;;;;;;;20.69;57.27;99811.69;4973615;28;20054;-81
2023/08/14 02:06:31;;;;;;;7.85;2.53;;;;;;;20.68;57.39;99818.84;4973823;28;20058;-80
2023/08/14 02:08:57;;;;;;;5.78;2.63;;;;;;;20.67;57.42;99814.50;4973357;28;20046;-81
2023/08/14 02:11:24;;;;;;;9.82;2.22;;;;;;;20.65;57.34;99805.81;4973630;28;20057;-80
2023/08/14 02:13:50;;;;;;;5.65;2.13;;;;;;;20.65;57.41;99802.28;4973850;28;20051;-80
2023/08/14 02:16:17;;;;;;;5.30;2.25;;;;;;;20.63;57.24;99804.28;4972443;28;20047;-81
2023/08/14 02:18:43;;;;;;;6.00;2.08;;;;;;;20.60;57.45;99805.44;4956184;28;20047;-81
2023/08/14 02:21:10;;;;;;;5.05;1.92;;;;;;;20.57;57.34;99801.19;4956397;28;20046;-80
2023/08/14 02:23:36;;;;;;;4.97;2.30;;;;;;;20.55;57.37;99794.31;4973394;28;20058;-80
2023/08/14 02:26:03;;;;;;;4.80;1.88;;;;;;;20.51;57.25;99790.28;4955829;28;20082;-80
2023/08/14 02:28:29;;;;;;;4.88;1.75;;;;;;;20.49;57.25;99789.59;4973281;28;20408;-80
2023/08/14 02:30:56;;;;;;;9.75;2.40;;;;;;;20.45;57.47;99786.41;4956074;28;20047;-80
2023/08/14 02:33:22;;;;;;;3.33;1.50;;;;;;;20.40;57.40;99784.16;4973441;28;20054;-80
2023/08/14 02:35:49;;;;;;;5.72;2.17;;;;;;;20.38;57.47;99788.84;4955905;28;20042;-81
2023/08/14 02:38:15;;;;;;;5.00;2.15;;;;;;;20.36;57.49;99789.94;4972274;28;20503;-81
2023/08/14 02:40:41;;;;;;;7.15;1.70;;;;;;;20.33;57.47;99787.59;4973361;28;20109;-80
2023/08/14 02:43:08;;;;;;;3.92;2.00;;;;;;;20.30;57.76;99791.41;4956063;28;20137;-81
2023/08/14 02:45:35;;;;;;;4.95;1.85;;;;;;;20.28;57.05;99793.38;4972521;28;20069;-81
2023/08/14 02:48:02;;;;;;;5.35;2.08;;;;;;;20.24;57.08;99794.66;4972143;28;20055;-81
2023/08/14 02:50:28;;;;;;;5.68;1.83;;;;;;;20.20;57.08;99791.47;4972493;28;20059;-81
2023/08/14 02:52:55;;;;;;;5.82;2.22;;;;;;;20.16;57.26;99795.44;4972317;28;20093;-80
2023/08/14 02:55:22;;;;;;;7.93;2.50;;;;;;;20.12;57.47;99781.53;4972656;28;20043;-80
2023/08/14 02:57:49;;;;;;;6.30;2.25;;;;;;;20.08;57.71;99782.81;4971676;28;20415;-80
2023/08/14 03:00:16;;;;;;;6.47;2.22;;;;;;;20.07;57.92;99777.63;4972248;28;20046;-80
2023/08/14 03:02:42;;;;;;;4.88;1.85;;;;;;;20.05;57.90;99781.28;4972402;28;20130;-80
2023/08/14 03:05:09;;;;;;;5.45;1.90;;;;;;;20.05;58.01;99783.97;4955047;28;20545;-81
2023/08/14 03:07:36;;;;;;;4.90;1.70;;;;;;;20.03;58.23;99774.38;4971879;28;20498;-80
2023/08/14 03:10:02;;;;;;;5.68;2.30;;;;;;;20.02;58.37;99770.91;4971943;28;20533;-81
2023/08/14 03:12:29;;;;;;;4.18;1.73;;;;;;;20.02;58.28;99772.72;4972150;28;20133;-81
2023/08/14 03:14:55;;;;;;;6.28;2.60;;;;;;;20.01;58.39;99776.38;4972081;28;20062;-81
2023/08/14 03:17:22;;;;;;;6.85;2.00;;;;;;;20.00;58.67;99775.53;4971837;28;20087;-80
2023/08/14 03:19:48;;;;;;;7.22;2.20;;;;;;;19.99;58.60;99773.84;4971796;28;20476;-80
2023/08/14 03:22:15;;;;;;;5.18;1.90;;;;;;;19.98;58.52;99773.97;4954778;28;20047;-80
2023/08/14 03:24:42;;;;;;;6.55;2.20;;;;;;;19.96;58.55;99771.44;4972293;28;20051;-81
2023/08/14 03:27:08;;;;;;;6.13;2.15;;;;;;;19.96;58.86;99779.44;4973216;28;20050;-80
2023/08/14 03:29:35;;;;;;;4.65;2.28;;;;;;;19.94;58.86;99776.09;4975725;28;20051;-81
2023/08/14 03:32:01;;;;;;;6.63;2.25;;;;;;;19.92;59.04;99776.25;4975773;28;20133;-80
2023/08/14 03:34:28;;;;;;;5.18;2.25;;;;;;;19.90;58.82;99778.25;4976100;28;20051;-81
2023/08/14 03:36:54;;;;;;;4.00;2.13;;;;;;;19.88;59.00;99774.84;4976129;28;20046;-80
2023/08/14 03:39:21;;;;;;;3.42;1.95;;;;;;;19.88;58.84;99776.69;4975866;28;20419;-80
2023/08/14 03:41:47;;;;;;;5.75;2.33;;;;;;;19.86;58.94;99776.00;4958698;28;20138;-81
2023/08/14 03:44:14;;;;;;;4.80;1.77;;;;;;;19.84;58.61;99781.47;4958567;28;20093;-81
2023/08/14 03:46:40;;;;;;;5.28;1.98;;;;;;;19.83;58.55;99784.31;4975881;28;20599;-81
2023/08/14 03:49:07;;;;;;;5.78;2.45;;;;;;;19.81;59.50;99789.78;4975626;28;20051;-80
2023/08/14 03:51:33;;;;;;;7.85;2.42;;;;;;;19.78;59.36;99785.59;4975761;28;20133;-80
2023/08/14 03:54:00;;;;;;;4.63;1.67;;;;;;;19.78;59.26;99779.41;4975922;28;20073;-80
2023/08/14 03:56:26;;;;;;;5.57;2.25;;;;;;;19.77;58.94;99767.88;4958536;28;20418;-81
2023/08/14 03:58:53;;;;;;;4.82;2.10;;;;;;;19.76;59.22;99768.88;4958095;28;20051;-80
2023/08/14 04:01:20;;;;;;;10.35;2.30;;;;;;;19.76;59.47;99768.88;4975462;28;20097;-80
2023/08/14 04:03:46;;;;;;;5.57;2.28;;;;;;;19.77;59.50;99772.38;4975519;28;20078;-80
2023/08/14 04:06:13;;;;;;;5.35;1.83;;;;;;;19.76;59.49;99781.38;4975653;28;20061;-80
2023/08/14 04:08:39;;;;;;;6.68;2.40;;;;;;;19.77;59.45;99775.03;4975318;28;20243;-80
2023/08/14 04:11:06;;;;;;;7.72;3.00;;;;;;;19.78;59.93;99768.72;4975224;28;20478;-80
2023/08/14 04:13:33;;;;;;;6.75;2.35;;;;;;;19.77;59.60;99770.56;4975410;28;20093;-80
2023/08/14 04:15:59;;;;;;;4.57;2.22;;;;;;;19.78;59.79;99766.06;4975257;28;20134;-80
2023/08/14 04:18:27;;;;;;;7.25;2.40;;;;;;;19.78;59.83;99763.38;4957622;28;20043;-80
2023/08/14 04:20:54;;;;;;;6.65;2.63;;;;;;;19.78;60.05;99768.72;4975402;28;20141;-81
2023/08/14 04:23:22;;;;;;;9.60;2.50;;;;;;;19.78;59.83;99768.72;4975003;28;20058;-81
2023/08/14 04:25:48;;;;;;;6.50;2.50;;;;;;;19.78;59.95;99768.72;4957965;28;20086;-81
2023/08/14 04:28:15;;;;;;;9.85;2.80;;;;;;;19.78;59.98;99772.22;4974715;28;20069;-81
2023/08/14 04:30:42;;;;;;;5.45;2.38;;;;;;;19.77;59.96;99769.69;4974989;28;20051;-80
2023/08/14 04:33:08;;;;;;;9.35;2.90;;;;;;;19.77;59.66;99769.69;4974605;28;20073;-80
2023/08/14 04:35:37;;;;;;;5.70;2.28;;;;;;;19.76;59.69;99774.22;4975087;28;20150;-80
2023/08/14 04:38:04;;;;;;;6.30;2.60;;;;;;;19.77;59.85;99775.03;4974147;28;20051;-81
2023/08/14 04:40:31;;;;;;;10.68;2.72;;;;;;;19.77;60.05;99767.88;4974325;28;20043;-81
2023/08/14 04:42:57;;;;;;;7.47;2.55;;;;;;;19.78;60.43;99772.22;4974839;28;20057;-80
2023/08/14 04:45:24;;;;;;;5.47;2.88;;;;;;;19.79;60.57;99775.75;4974675;28;20277;-80
2023/08/14 04:47:50;;;;;;;6.90;2.47;;;;;;;19.81;60.56;99776.44;4957122;28;20055;-80
2023/08/14 04:50:20;;;;;;;6.10;2.17;;;;;;;19.84;60.79;99780.66;4958146;28;20499;-80
2023/08/14 04:52:46;;;;;;;7.00;2.33;;;;;;;19.86;60.55;99768.84;4974528;28;20053;-80
2023/08/14 04:55:13;;;;;;;7.40;2.65;;;;;;;19.88;60.54;99774.84;4974569;28;20431;-80
2023/08/14 04:57:39;;;;;;;5.90;2.83;;;;;;;19.91;60.87;99774.56;4974140;28;20055;-80
2023/08/14 05:00:07;;;;;;;11.95;2.90;;;;;;;19.95;60.67;99763.59;4974410;28;20086;-80
2023/08/14 05:02:33;;;;;;;4.95;2.40;;;;;;;19.98;60.83;99768.63;4974471;28;20050;-80
2023/08/14 05:05:00;;;;;;;4.80;2.53;;;;;;;20.02;60.98;99765.56;4955033;29;20051;-81
2023/08/14 05:07:26;;;;;;;9.27;2.90;;;;;;;20.05;60.82;99765.25;4954911;29;20055;-83
2023/08/14 05:09:53;;;;;;;5.90;2.70;;;;;;;20.10;60.86;99764.78;4954942;29;20052;-80
2023/08/14 05:12:19;;;;;;;6.53;2.80;;;;;;;20.13;60.98;99761.84;4954873;29;20142;-81
2023/08/14 05:14:46;;;;;;;9.77;3.13;;;;;;;20.18;61.21;99764.88;4969404;28;20141;-81
2023/08/14 05:17:13;;;;;;;8.73;2.70;;;;;;;20.21;61.05;99769.09;4956979;28;20069;-81
2023/08/14 05:19:40;;;;;;;9.15;2.50;;;;;;;20.24;60.76;99763.44;4974039;28;20499;-81
2023/08/14 05:22:06;;;;;;;8.52;2.72;;;;;;;20.27;60.99;99762.31;4974507;28;20055;-85
2023/08/14 05:24:33;;;;;;;5.47;2.83;;;;;;;20.30;60.82;99762.00;4974383;28;20049;-84
2023/08/14 05:26:59;;;;;;;4.97;2.70;;;;;;;20.33;60.73;99759.00;4974344;28;20133;-83
2023/08/14 05:29:26;;;;;;;5.35;2.40;;;;;;;20.36;60.76;99768.56;4957068;28;20051;-84
2023/08/14 05:31:52;;;;;;;6.90;2.92;;;;;;;20.38;60.92;99764.78;4974440;28;20054;-83
2023/08/14 05:34:19;;;;;;;7.45;2.88;;;;;;;20.41;61.44;99761.78;4974172;28;20053;-84
2023/08/14 05:36:45;;;;;;;8.05;2.95;;;;;;;20.45;61.40;99759.66;4974379;28;20061;-84
2023/08/14 05:39:12;;;;;;;9.63;3.20;;;;;;;20.48;61.49;99756.66;4973910;28;20058;-85
2023/08/14 05:41:38;;;;;;;5.88;2.78;;;;;;;20.52;61.37;99762.56;4974291;28;20554;-85
2023/08/14 05:44:05;;;;;;;4.03;2.47;;;;;;;20.55;61.67;99756.88;4974421;28;20061;-83
2023/08/14 05:46:32;;;;;;;5.93;2.70;;;;;;;20.58;61.54;99748.56;4974415;28;20412;-84
2023/08/14 05:48:58;;;;;;;9.20;3.35;;;;;;;20.63;61.46;99758.81;4973786;28;20077;-85
2023/08/14 05:51:25;;;;;;;4.85;2.25;;;;;;;20.67;61.54;99758.34;4973900;28;20054;-84
2023/08/14 05:53:51;;;;;;;7.50;3.10;;;;;;;20.72;61.64;99759.72;4974102;28;20130;-86
2023/08/14 05:56:18;;;;;;;7.18;3.17;;;;;;;20.75;61.39;99760.25;4973866;28;20145;-84
2023/08/14 05:58:44;;;;;;;7.05;3.08;;;;;;;20.81;61.39;99769.50;4973857;28;20058;-84
2023/08/14 06:01:12;;;;;;;7.82;2.85;;;;;;;20.86;61.45;99767.19;4973610;28;20138;-84
2023/08/14 06:03:39;;;;;;;6.35;2.55;;;;;;;20.92;61.35;99774.66;4973960;28;20054;-84
2023/08/14 06:06:11;;;;;;;11.27;2.90;;;;;;;20.98;61.38;99785.72;4957405;28;20059;-84
2023/08/14 06:08:37;;;;;;;7.25;2.97;;;;;;;21.03;61.89;99776.22;4973480;28;20481;-84
2023/08/14 06:11:04;;;;;;;7.55;2.92;;;;;;;21.10;61.58;99768.41;4973651;28;20077;-85
2023/08/14 06:13:31;;;;;;;6.32;3.03;;;;;;;21.17;61.41;99769.47;4955714;28;20534;-87
2023/08/14 06:15:58;;;;;;;8.38;3.00;;;;;;;21.24;61.39;99755.47;4973731;28;20097;-85
2023/08/14 06:18:24;;;;;;;7.72;2.70;;;;;;;21.31;61.32;99762.69;4973239;28;20448;-86
2023/08/14 06:20:51;;;;;;;7.25;3.28;;;;;;;21.38;61.41;99765.56;4956364;28;20747;-85
2023/08/14 06:23:18;;;;;;;6.25;2.78;;;;;;;21.46;61.53;99773.66;4956082;28;20407;-84
2023/08/14 06:25:45;;;;;;;5.05;2.70;;;;;;;21.56;61.84;99767.34;4973615;28;20058;-86
2023/08/14 06:28:12;;;;;;;7.40;3.20;;;;;;;21.64;61.75;99774.59;4973378;28;20058;-83
2023/08/14 06:30:38;;;;;;;6.43;3.00;;;;;;;21.71;61.98;99779.16;4973528;28;20053;-84
2023/08/14 06:33:05;;;;;;;7.32;3.15;;;;;;;21.80;61.63;99771.19;4972935;28;20130;-85
2023/08/14 06:35:31;;;;;;;7.60;2.67;;;;;;;21.88;61.55;99768.56;4973344;28;20050;-84
2023/08/14 06:37:58;;;;;;;6.68;2.88;;;;;;;21.97;61.57;99764.03;4972874;28;20451;-85
2023/08/14 06:40:24;;;;;;;7.03;2.75;;;;;;;22.04;61.48;99766.91;4973364;28;20055;-82
2023/08/14 06:42:52;;;;;;;7.97;2.90;;;;;;;22.12;61.29;99767.78;4972843;28;20462;-84
2023/08/14 06:45:19;;;;;;;6.38;3.20;;;;;;;22.20;61.32;99769.66;4973323;28;20058;-84
2023/08/14 06:47:45;;;;;;;8.73;3.25;;;;;;;22.26;61.33;99766.34;4955683;28;20133;-84
2023/08/14 06:50:13;;;;;;;6.63;3.00;;;;;;;22.34;60.96;99770.88;4973049;28;20454;-85
2023/08/14 06:52:40;;;;;;;12.32;3.22;;;;;;;22.40;60.95;99764.00;4972702;28;20567;-84
2023/08/14 06:55:07;;;;;;;9.23;3.22;;;;;;;22.47;60.76;99770.38;4973199;28;20074;-85
2023/08/14 06:57:33;;;;;;;8.75;3.35;;;;;;;22.55;60.83;99768.75;4955536;28;20096;-84
2023/08/14 07:00:06;;;;;;;7.47;3.03;;;;;;;22.61;60.93;99765.41;4972969;28;20062;-87
2023/08/14 07:02:33;;;;;;;5.55;2.92;;;;;;;22.68;60.77;99762.91;4954898;28;20043;-81
2023/08/14 07:05:00;;;;;;;10.15;3.10;;;;;;;22.75;60.45;99754.00;4972669;28;20097;-81
2023/08/14 07:07:26;;;;;;;7.93;3.28;;;;;;;22.83;60.46;99769.25;4972422;28;20142;-81
2023/08/14 07:09:53;;;;;;;10.65;3.65;;;;;;;22.90;60.46;99780.16;4972055;28;20109;-80
2023/08/14 07:12:19;;;;;;;10.23;3.17;;;;;;;22.97;60.43;99786.56;4972251;28;20093;-80
2023/08/14 07:14:46;;;;;;;8.23;3.10;;;;;;;23.03;59.83;99785.88;4972233;28;20049;-81
2023/08/14 07:17:13;;;;;;;6.85;2.97;;;;;;;23.13;59.45;99784.84;4971870;28;20149;-81
2023/08/14 07:19:39;;;;;;;7.10;3.30;;;;;;;23.20;59.52;99775.13;4971722;28;20110;-80
2023/08/14 07:22:05;;;;;;;7.25;2.90;;;;;;;23.28;59.28;99776.94;4971849;28;20043;-81
2023/08/14 07:24:32;;;;;;;8.70;2.80;;;;;;;23.36;59.66;99770.78;4971914;28;20046;-80
2023/08/14 07:26:59;;;;;;;7.68;2.80;;;;;;;23.44;59.60;99773.44;4971850;28;20499;-81
2023/08/14 07:29:26;;;;;;;6.20;2.55;;;;;;;23.52;59.16;99794.88;4971741;28;20051;-80
2023/08/14 07:31:52;;;;;;;5.68;3.05;;;;;;;23.62;59.29;99801.94;4972007;28;20042;-80
2023/08/14 07:34:19;;;;;;;9.20;2.65;;;;;;;23.70;58.60;99807.28;4971654;28;20058;-80
2023/08/14 07:36:45;;;;;;;8.88;3.15;;;;;;;23.76;58.43;99795.84;4954409;28;20469;-80
2023/08/14 07:39:12;;;;;;;8.98;3.50;;;;;;;23.84;58.46;99797.66;4971509;28;20047;-81
2023/08/14 07:41:38;;;;;;;8.55;3.10;;;;;;;23.91;58.89;99801.31;4971968;28;20053;-81
2023/08/14 07:44:05;;;;;;;14.77;3.15;;;;;;;23.97;58.28;99802.47;4972089;28;20101;-81
2023/08/14 07:46:31;;;;;;;6.90;3.00;;;;;;;24.02;57.42;99799.25;4971540;28;20512;-81
2023/08/14 07:48:58;;;;;;;7.40;3.22;;;;;;;24.07;57.87;99804.97;4971289;28;20459;-81
2023/08/14 07:51:24;;;;;;;7.03;3.13;;;;;;;24.12;57.58;99810.69;4971785;28;20747;-80
2023/08/14 07:53:52;;;;;;;10.38;3.33;;;;;;;24.16;57.24;99800.41;4971867;28;20051;-81
2023/08/14 07:56:18;;;;;;;8.27;3.05;;;;;;;24.21;57.40;99803.41;4971457;28;20043;-80
2023/08/14 07:58:45;;;;;;;8.68;2.90;;;;;;;24.23;57.52;99801.38;4971316;28;20121;-80
2023/08/14 08:01:11;;;;;;;6.38;3.08;;;;;;;24.26;56.86;99801.00;4971694;28;20384;-80
2023/08/14 08:03:38;;;;;;;7.50;2.90;;;;;;;24.28;56.66;99807.06;4971901;28;20444;-80
2023/08/14 08:06:05;;;;;;;6.90;2.67;;;;;;;24.30;56.41;99804.22;4971530;28;20120;-80
2023/08/14 08:08:32;;;;;;;9.95;3.10;;;;;;;24.32;55.95;99808.41;4971394;28;20477;-80
2023/08/14 08:10:58;;;;;;;5.93;3.00;;;;;;;24.33;56.34;99806.53;4971745;28;20089;-80
2023/08/14 08:13:25;;;;;;;5.93;2.70;;;;;;;24.36;56.62;99806.19;4973033;28;20074;-80
2023/08/14 08:15:51;;;;;;;7.00;2.97;;;;;;;24.38;56.92;99798.78;4974956;28;20054;-81
2023/08/14 08:18:18;;;;;;;7.43;2.92;;;;;;;24.43;57.25;99787.47;4974673;28;20532;-80
2023/08/14 08:20:45;;;;;;;5.43;2.85;;;;;;;24.47;57.73;99775.34;4975136;28;20500;-80
2023/08/14 08:23:11;;;;;;;8.70;3.20;;;;;;;24.52;57.38;99769.44;4975098;28;20562;-81
2023/08/14 08:25:37;;;;;;;7.38;3.00;;;;;;;24.57;57.17;99769.72;4974885;28;20059;-81
2023/08/14 08:28:04;;;;;;;8.15;3.25;;;;;;;24.61;56.84;99781.81;4974843;28;20055;-81
2023/08/14 08:30:30;;;;;;;7.07;2.88;;;;;;;24.66;56.52;99786.63;4974920;28;20051;-80
2023/08/14 08:32:57;;;;;;;6.35;2.85;;;;;;;24.71;57.33;99789.66;4975188;28;20216;-81
2023/08/14 08:35:29;;;;;;;10.13;3.25;;;;;;;24.77;56.45;99786.22;4958423;28;20447;-81
2023/08/14 08:37:55;;;;;;;6.78;3.03;;;;;;;24.81;56.19;99787.53;4974353;28;20046;-81
2023/08/14 08:40:23;;;;;;;6.85;2.65;;;;;;;24.83;56.04;99785.53;4974850;28;20043;-81
2023/08/14 08:42:50;;;;;;;7.90;2.78;;;;;;;24.87;56.18;99786.03;4974611;28;20639;-81
2023/08/14 08:45:18;;;;;;;8.20;2.75;;;;;;;24.91;56.22;99786.50;4974728;28;20047;-80
2023/08/14 08:47:48;;;;;;;7.07;2.80;;;;;;;24.94;57.17;99781.59;4974318;28;20051;-80
2023/08/14 08:50:15;;;;;;;7.88;2.95;;;;;;;25.00;56.08;99779.19;4974699;28;20086;-80
2023/08/14 08:52:42;;;;;;;5.22;2.72;;;;;;;25.03;55.12;99768.03;4974656;28;20402;-81
2023/08/14 08:55:09;;;;;;;8.95;3.10;;;;;;;25.06;54.79;99770.38;4974526;28;20137;-81
2023/08/14 08:57:38;;;;;;;11.32;2.78;;;;;;;25.08;54.69;99771.84;4973868;28;20122;-81
2023/08/14 09:00:05;;;;;;;6.75;2.38;;;;;;;25.12;54.55;99766.97;4974103;28;20105;-81
2023/08/14 09:02:32;;;;;;;8.98;2.65;;;;;;;25.14;55.08;99756.81;4974467;28;20406;-80
2023/08/14 09:04:59;;;;;;;5.43;2.10;;;;;;;25.17;54.42;99759.16;4974386;28;20110;-81
2023/08/14 09:07:26;;;;;;;6.38;2.13;;;;;;;25.22;54.48;99761.28;4974062;28;20051;-81
2023/08/14 09:09:52;;;;;;;5.30;1.95;;;;;;;25.26;54.19;99757.22;4974084;28;20082;-80
2023/08/14 09:12:19;;;;;;;4.10;1.70;;;;;;;25.30;53.33;99757.69;4974209;28;20062;-81
2023/08/14 09:15:04;;;;;;;5.30;2.28;;;;;;;25.30;53.16;99749.63;4974176;28;20042;-80
2023/08/14 09:17:31;;;;;;;4.63;1.95;;;;;;;25.37;53.24;99737.91;4956604;28;20051;-81
2023/08/14 09:19:58;;;;;;;4.43;2.00;;;;;;;25.44;53.83;99742.53;4974013;28;20059;-81
2023/08/14 09:22:27;;;;;;;3.67;1.88;;;;;;;25.50;52.90;99749.91;4973796;28;20047;-81
2023/08/14 09:24:55;;;;;;;6.43;2.00;;;;;;;25.56;53.02;99749.16;4973425;28;20484;-80
2023/08/14 09:27:23;;;;;;;4.22;1.48;;;;;;;25.62;52.81;99759.22;4973819;28;20562;-81
2023/08/14 09:29:53;;;;;;;5.15;1.80;;;;;;;25.69;52.35;99769.25;4974063;28;20138;-80
2023/08/14 09:32:23;;;;;;;6.53;1.90;;;;;;;25.75;50.27;99780.09;4956746;28;20415;-80
2023/08/14 09:34:58;;;;;;;3.60;1.52;;;;;;;25.83;51.16;99770.25;4956612;28;20130;-80
2023/08/14 09:37:25;;;;;;;4.55;1.70;;;;;;;25.93;50.82;99767.28;4973277;28;20075;-80
2023/08/14 09:40:14;;;;;;;5.10;1.60;;;;;;;25.95;51.87;99774.16;4973823;28;20050;-80
2023/08/14 09:42:48;;;;;;;4.07;1.80;;;;;;;26.05;49.95;99770.31;4973631;28;20062;-81
2023/08/14 09:45:23;;;;;;;3.50;1.90;;;;;;;26.12;50.03;99777.44;4973679;28;20097;-80
2023/08/14 09:47:52;;;;;;;4.97;1.60;;;;;;;26.20;51.75;99784.59;4973290;28;20735;-81
2023/08/14 09:50:26;;;;;;;4.22;1.80;;;;;;;26.26;51.38;99783.03;4973599;28;20097;-81
2023/08/14 09:52:57;;;;;;;5.10;1.58;;;;;;;26.30;51.51;99778.94;4956413;28;20138;-81
2023/08/14 09:55:23;;;;;;;3.65;1.75;;;;;;;26.36;50.69;99788.13;4973552;28;20047;-80
2023/08/14 09:57:50;;;;;;;5.32;1.42;;;;;;;26.40;50.51;99779.44;4972850;28;20046;-80
2023/08/14 10:00:16;;;;;;;3.45;1.63;;;;;;;26.46;50.01;99768.94;4973314;28;20544;-80
2023/08/14 10:02:44;;;;;;;5.53;1.80;;;;;;;26.51;49.68;99771.88;4973478;28;20055;-81
2023/08/14 10:05:12;;;;;;;2.40;1.65;;;;;;;26.56;50.82;99766.72;4973156;28;20047;-81
2023/08/14 10:07:40;;;;;;;5.10;1.52;;;;;;;26.62;50.33;99770.53;4972981;28;20059;-81
2023/08/14 10:10:11;;;;;;;2.90;1.45;;;;;;;26.68;49.75;99764.34;4972963;28;20414;-80
2023/08/14 10:12:45;;;;;;;5.05;1.48;;;;;;;26.74;48.08;99763.59;4973183;28;20230;-80
2023/08/14 10:15:16;;;;;;;6.10;2.03;;;;;;;26.83;47.92;99760.75;4973314;28;20082;-80
2023/08/14 10:18:03;;;;;;;4.57;1.58;;;;;;;26.87;49.00;99757.44;4972959;28;20109;-80
2023/08/14 10:20:34;;;;;;;2.90;1.67;;;;;;;26.97;48.21;99759.84;4972382;28;20042;-80
2023/08/14 10:23:02;;;;;;;4.20;1.70;;;;;;;27.06;47.85;99749.75;4972654;28;20054;-80
2023/08/14 10:25:29;;;;;;;4.07;1.60;;;;;;;27.13;48.23;99747.09;4973177;28;20731;-81
2023/08/14 10:27:56;;;;;;;5.30;1.98;;;;;;;27.19;47.49;99743.59;4972740;28;20114;-81
2023/08/14 10:30:24;;;;;;;4.43;1.77;;;;;;;27.26;47.19;99738.22;4972772;28;20110;-81
2023/08/14 10:32:52;;;;;;;6.15;1.50;;;;;;;27.35;49.53;99731.63;4972666;28;20055;-80
2023/08/14 10:35:23;;;;;;;4.95;2.03;;;;;;;27.43;47.49;99727.91;4972710;28;20133;-80
2023/08/14 10:37:52;;;;;;;5.45;2.05;;;;;;;27.52;47.72;99732.16;4971820;28;20047;-80
2023/08/14 10:40:35;;;;;;;4.53;1.70;;;;;;;27.64;49.05;99724.34;4972556;28;20043;-80
2023/08/14 10:43:02;;;;;;;7.07;2.10;;;;;;;27.74;48.75;99717.72;4955455;28;20117;-81
2023/08/14 10:45:29;;;;;;;3.92;1.77;;;;;;;27.84;49.30;99718.16;4972540;28;20562;-80
2023/08/14 10:48:08;;;;;;;5.20;1.85;;;;;;;27.91;48.63;99713.59;4972191;28;20460;-81
2023/08/14 10:50:35;;;;;;;4.88;1.55;;;;;;;28.07;48.24;99714.28;4972467;28;20059;-81
2023/08/14 10:53:04;;;;;;;4.05;1.83;;;;;;;28.20;49.01;99716.19;4972414;28;20137;-80
2023/08/14 10:55:39;;;;;;;3.42;1.40;;;;;;;28.34;47.49;99703.53;4972534;28;20050;-80
2023/08/14 10:58:36;;;;;;;4.78;1.90;;;;;;;28.54;48.20;99710.84;4972187;28;20047;-81
2023/08/14 11:01:09;;;;;;;5.13;1.73;;;;;;;28.86;46.32;99713.75;4972103;28;20423;-80
2023/08/14 11:04:00;;;;;;;6.60;2.08;;;;;;;29.22;48.09;99712.47;4972428;28;20047;-81
2023/08/14 11:06:28;;;;;;;4.38;1.73;;;;;;;29.76;48.30;99719.63;4972263;28;20054;-81
2023/08/14 11:09:03;;;;;;;6.00;1.73;;;;;;;30.33;47.07;99723.50;4971937;28;20412;-80
2023/08/14 11:11:30;;;;;;;5.40;1.80;;;;;;;30.97;47.54;99720.72;4972200;28;20481;-80
2023/08/14 11:13:57;;;;;;;3.35;1.73;;;;;;;31.62;46.37;99712.31;4972131;28;20050;-80
2023/08/14 11:16:24;;;;;;;5.45;2.03;;;;;;;32.23;44.73;99721.34;4972266;28;20051;-80
2023/08/14 11:18:52;;;;;;;2.05;1.33;;;;;;;32.84;41.79;99705.94;4971777;28;20051;-80
2023/08/14 11:21:18;;;;;;;2.38;1.42;;;;;;;33.37;41.67;99698.66;4971727;28;20054;-80
2023/08/14 11:23:57;;;;;;;2.83;1.52;;;;;;;33.95;41.00;99702.53;4956419;28;20042;-81
2023/08/14 11:26:28;;;;;;;2.72;1.60;;;;;;;34.42;37.47;99701.47;4954790;28;20487;-79
2023/08/14 11:28:54;;;;;;;5.82;1.60;;;;;;;34.87;38.19;99702.44;4954753;28;20046;-81
2023/08/14 11:31:21;;;;;;;4.15;1.48;;;;;;;35.28;38.22;99704.13;4972149;28;20094;-80
2023/08/14 11:33:59;;;;;;;5.10;1.60;;;;;;;35.69;37.10;99707.38;4971842;28;20130;-80
2023/08/14 11:36:26;;;;;;;4.95;2.15;;;;;;;36.06;37.30;99707.75;4971987;28;20043;-80
2023/08/14 11:39:00;;;;;;;2.45;1.40;;;;;;;36.43;36.03;99707.00;4971794;28;20046;-78